Time;durP1;ratioP1;P1;durP2;ratioP2;P2;SDS_P1;SDS_P2;PMS_P1;PMS_P2;Temp;Humidity;BMP_temperature;BMP_pressure;BME280_temperature;BME280_humidity;BME280_pressure;Samples;Min_cycle;Max_cycle;Signal;HPM_P1;HPM_P2
2023/09/13 00:00:11;;;;;;;42.85;30.70;;;20.70;99.90;;;21.11;81.04;100162.66;4932924;29;20055;-89
2023/09/13 00:02:41;;;;;;;41.65;29.08;;;20.70;99.90;;;21.08;81.48;100158.63;4931052;29;20059;-89
2023/09/13 00:05:09;;;;;;;39.40;29.38;;;20.70;99.90;;;21.11;81.52;100157.25;4923002;29;20062;-89
2023/09/13 00:07:37;;;;;;;42.90;30.33;;;20.70;99.90;;;21.13;81.44;100160.50;4945939;29;20044;-89
2023/09/13 00:10:07;;;;;;;39.83;29.63;;;20.70;99.90;;;21.14;81.47;100158.56;4915922;29;20086;-89
2023/09/13 00:12:37;;;;;;;42.50;29.95;;;20.70;99.90;;;21.13;81.44;100160.50;4933229;29;20062;-89
2023/09/13 00:15:08;;;;;;;42.80;32.22;;;20.70;99.90;;;21.14;81.31;100151.25;4931882;29;20649;-89
2023/09/13 00:17:36;;;;;;;41.85;31.05;;;20.70;99.90;;;21.15;81.62;100161.00;4936969;29;20044;-89
2023/09/13 00:20:04;;;;;;;48.92;31.88;;;20.70;99.90;;;21.15;81.67;100154.75;4947360;28;20527;-89
2023/09/13 00:22:34;;;;;;;45.10;32.40;;;20.70;99.90;;;21.15;81.43;100161.00;4945272;29;20111;-89
2023/09/13 00:25:26;;;;;;;54.13;34.15;;;20.70;99.90;;;21.14;81.95;100159.38;4933664;29;20110;-88
2023/09/13 00:28:00;;;;;;;44.08;33.33;;;20.70;99.90;;;21.14;82.23;100169.44;4954315;29;20099;-89
2023/09/13 00:30:30;;;;;;;45.80;33.83;;;20.60;99.90;;;21.15;82.04;100171.03;4941835;29;20408;-89
2023/09/13 00:33:04;;;;;;;50.88;36.60;;;20.70;99.90;;;21.15;82.40;100176.47;4936225;29;20052;-89
2023/09/13 00:35:40;;;;;;;47.97;35.07;;;20.70;99.90;;;21.16;82.33;100180.78;4940933;29;20394;-89
2023/09/13 00:38:08;;;;;;;46.28;34.00;;;20.70;99.90;;;21.16;82.26;100187.00;4930752;29;20054;-89
2023/09/13 00:40:40;;;;;;;47.70;34.63;;;20.80;99.90;;;21.16;82.54;100191.63;4937716;29;20043;-88
2023/09/13 00:43:12;;;;;;;52.03;37.97;;;20.80;99.90;;;21.11;83.01;100197.13;4938122;29;20052;-88
2023/09/13 00:45:48;;;;;;;54.28;39.00;;;20.70;99.90;;;21.09;82.88;100203.63;4938734;29;20120;-89
2023/09/13 00:48:17;;;;;;;53.47;39.05;;;20.70;99.90;;;21.11;83.21;100202.53;4951436;29;20048;-88
2023/09/13 00:50:47;;;;;;;56.65;37.70;;;20.70;99.90;;;21.05;83.26;100205.31;4956348;29;20104;-88
2023/09/13 00:53:15;;;;;;;51.63;38.60;;;20.70;99.90;;;21.03;83.84;100210.22;4952519;29;20035;-89
2023/09/13 00:55:46;;;;;;;55.53;37.92;;;20.70;99.90;;;21.04;83.67;100206.41;4947197;29;20040;-89
2023/09/13 00:58:15;;;;;;;55.50;38.87;;;20.70;99.90;;;21.08;83.61;100209.31;4953702;29;20067;-88
2023/09/13 01:00:43;;;;;;;53.45;38.22;;;20.70;99.90;;;21.09;83.84;100208.25;4952634;28;20046;-89
2023/09/13 01:03:17;;;;;;;51.20;36.65;;;20.70;99.90;;;21.09;83.70;100209.06;4937209;29;20052;-88
2023/09/13 01:05:46;;;;;;;48.35;36.00;;;20.70;99.90;;;21.08;83.98;100206.63;4950171;29;20078;-89
2023/09/13 01:08:14;;;;;;;49.10;35.03;;;20.70;99.90;;;21.09;83.83;100200.94;4938360;29;20044;-89
2023/09/13 01:10:41;;;;;;;50.35;35.83;;;20.70;99.90;;;21.07;83.65;100199.59;4937885;29;20043;-89
2023/09/13 01:13:10;;;;;;;56.67;38.92;;;20.70;99.90;;;21.08;83.54;100206.63;4953607;28;20051;-89
2023/09/13 01:15:47;;;;;;;49.05;35.03;;;20.70;99.90;;;21.05;83.42;100208.00;4937212;29;20500;-88
2023/09/13 01:18:22;;;;;;;47.50;34.00;;;20.70;99.90;;;21.05;83.26;100197.16;4936647;29;20051;-89
2023/09/13 01:21:20;;;;;;;48.28;34.42;;;20.70;99.90;;;21.05;83.26;100194.47;4936723;29;20095;-89
2023/09/13 01:24:11;;;;;;;47.67;33.92;;;20.70;99.90;;;21.06;83.24;100195.25;4934220;29;20055;-89
2023/09/13 01:27:06;;;;;;;43.60;31.85;;;20.70;99.90;;;21.07;82.96;100194.97;4951956;28;20047;-89
2023/09/13 01:29:37;;;;;;;43.65;31.25;;;20.70;99.90;;;21.07;82.92;100194.97;4934975;29;20181;-88
2023/09/13 01:32:05;;;;;;;;;;;20.60;99.90;;;21.06;83.06;100190.66;4938021;29;20143;-89
2023/09/13 01:34:32;;;;;;;40.58;29.23;;;20.60;99.90;;;21.02;83.28;100186.88;4945340;29;19926;-88
2023/09/13 01:37:00;;;;;;;40.22;28.40;;;20.60;99.90;;;21.02;83.04;100191.50;4927533;29;20047;-88
2023/09/13 01:39:27;;;;;;;41.90;28.23;;;20.60;99.90;;;21.02;83.05;100196.94;4934838;29;20068;-88
2023/09/13 01:42:01;;;;;;;40.17;27.85;;;20.70;99.90;;;21.03;82.97;100193.94;4938013;29;20048;-88
2023/09/13 01:44:29;;;;;;;40.30;29.73;;;20.60;99.90;;;21.04;83.44;100195.56;4951810;29;20111;-88
2023/09/13 01:46:59;;;;;;;39.10;29.20;;;20.60;99.90;;;21.04;82.93;100195.56;4935058;29;20067;-88
2023/09/13 01:49:28;;;;;;;42.10;30.42;;;20.60;99.90;;;21.04;83.29;100200.97;4933832;29;20051;-88
2023/09/13 01:51:56;;;;;;;42.33;30.38;;;20.60;99.90;;;21.04;83.54;100206.41;4950813;28;20096;-88
2023/09/13 01:54:24;;;;;;;47.13;32.90;;;20.60;99.90;;;21.03;83.42;100209.38;4944144;29;20039;-88
2023/09/13 01:56:51;;;;;;;41.10;30.92;;;20.60;99.90;;;20.99;83.36;100203.75;4935588;29;20142;-88
2023/09/13 01:59:19;;;;;;;43.63;32.13;;;20.60;99.90;;;21.01;83.62;100214.28;4935210;29;20139;-88
2023/09/13 02:01:46;;;;;;;48.47;34.05;;;20.60;99.90;;;21.00;83.92;100207.25;4950475;28;20401;-88
2023/09/13 02:04:15;;;;;;;44.35;32.65;;;20.60;99.90;;;21.01;83.85;100212.38;4940969;29;20163;-88
2023/09/13 02:06:42;;;;;;;44.45;32.58;;;20.70;99.90;;;21.04;83.36;100213.72;4935263;29;20036;-88
2023/09/13 02:09:10;;;;;;;42.45;32.00;;;20.60;99.90;;;21.02;83.77;100213.19;4934226;29;20075;-88
2023/09/13 02:11:38;;;;;;;49.92;33.53;;;20.60;99.90;;;20.95;84.43;100220.88;4943721;29;20048;-88
2023/09/13 02:14:05;;;;;;;53.35;36.38;;;20.60;99.90;;;20.89;84.88;100219.31;4944407;29;20103;-88
2023/09/13 02:16:33;;;;;;;56.47;36.42;;;20.60;99.90;;;20.90;84.62;100219.00;4950989;28;20051;-88
2023/09/13 02:19:00;;;;;;;60.13;37.08;;;20.60;99.90;;;20.90;84.34;100221.72;4944241;29;20492;-88
2023/09/13 02:21:29;;;;;;;51.25;33.83;;;20.60;99.90;;;20.93;84.38;100221.13;4929894;29;20044;-88
2023/09/13 02:23:57;;;;;;;53.08;33.55;;;20.60;99.90;;;20.95;84.25;100218.16;4929960;29;20040;-88
2023/09/13 02:26:26;;;;;;;50.65;35.65;;;20.60;99.90;;;20.94;84.05;100217.34;4924333;29;20500;-88
2023/09/13 02:29:01;;;;;;;51.83;35.67;;;20.60;99.90;;;20.93;83.74;100218.44;4936969;29;20135;-88
2023/09/13 02:31:29;;;;;;;51.35;34.47;;;20.60;99.90;;;20.94;83.97;100219.25;4933885;29;20071;-88
2023/09/13 02:34:02;;;;;;;51.13;34.22;;;20.60;99.90;;;20.89;84.02;100222.84;4932212;29;20056;-88
2023/09/13 02:36:34;;;;;;;51.28;35.33;;;20.60;99.90;;;20.87;83.36;100222.28;4950072;28;20055;-88
2023/09/13 02:39:03;;;;;;;50.97;35.13;;;20.50;99.90;;;20.86;83.50;100220.69;4940621;29;20424;-88
2023/09/13 02:41:33;;;;;;;47.70;33.33;;;20.50;99.90;;;20.86;82.80;100226.09;4930739;29;20080;-88
2023/09/13 02:44:04;;;;;;;51.70;35.30;;;20.50;99.90;;;20.88;82.71;100226.59;4929478;29;20500;-88
2023/09/13 02:46:33;;;;;;;52.05;35.75;;;20.50;99.90;;;20.85;82.74;100234.53;4947099;28;20047;-88
2023/09/13 02:49:06;;;;;;;55.53;34.83;;;20.50;99.90;;;20.80;83.25;100232.66;4932797;29;20078;-88
2023/09/13 02:51:37;;;;;;;56.50;36.83;;;20.40;99.90;;;20.81;83.32;100239.69;4929670;29;20047;-88
2023/09/13 02:54:05;;;;;;;53.28;35.95;;;20.40;99.90;;;20.79;83.76;100244.63;4941675;29;20185;-88
2023/09/13 02:56:32;;;;;;;55.70;38.50;;;20.40;99.90;;;20.79;83.50;100241.91;4946751;29;20043;-87
2023/09/13 02:59:01;;;;;;;59.17;37.53;;;20.40;99.90;;;20.77;83.40;100231.31;4938201;29;20048;-87
2023/09/13 03:01:28;;;;;;;68.57;41.63;;;20.40;99.90;;;20.75;84.01;100233.53;4950300;29;20058;-87
2023/09/13 03:03:55;;;;;;;60.10;38.90;;;20.40;99.90;;;20.73;83.69;100243.81;4933813;29;20039;-87
2023/09/13 03:06:24;;;;;;;65.82;41.50;;;20.40;99.90;;;20.75;83.74;100238.94;4948995;29;20043;-87
2023/09/13 03:08:56;;;;;;;82.57;41.63;;;20.40;99.90;;;20.75;84.21;100228.09;4940298;28;20409;-87
2023/09/13 03:11:24;;;;;;;66.63;41.38;;;20.40;99.90;;;20.72;84.14;100233.28;4932579;29;20058;-87
2023/09/13 03:13:53;;;;;;;65.22;41.42;;;20.40;99.90;;;20.74;84.01;100237.34;4946427;29;20040;-87
2023/09/13 03:16:23;;;;;;;68.53;42.50;;;20.40;99.90;;;20.75;83.76;100238.13;4949994;29;20044;-87
2023/09/13 03:18:52;;;;;;;67.13;42.78;;;20.40;99.90;;;20.73;84.24;100234.88;4949845;29;20048;-87
2023/09/13 03:21:25;;;;;;;70.18;43.58;;;20.40;99.90;;;20.71;83.82;100231.66;4908897;29;20058;-87
2023/09/13 03:24:02;;;;;;;75.43;44.70;;;20.40;99.90;;;20.63;84.53;100233.06;4935241;29;20044;-87
2023/09/13 03:26:32;;;;;;;68.20;42.83;;;20.30;99.90;;;20.57;84.87;100234.22;4933776;29;20091;-87
2023/09/13 03:28:59;;;;;;;66.72;42.42;;;20.30;99.90;;;20.57;84.94;100237.72;4933546;29;20044;-87
2023/09/13 14:26:06;;;;;;;4.80;1.50;;;19.60;99.90;;;19.80;65.11;100880.72;5124831;23;20426;-84
2023/09/13 14:28:35;;;;;;;5.43;1.70;;;19.60;99.90;;;19.79;64.32;100879.91;4848085;29;20061;-84
2023/09/13 14:31:03;;;;;;;4.00;1.50;;;19.60;99.90;;;19.75;64.03;100881.53;4841515;29;20050;-84
2023/09/13 14:33:37;;;;;;;4.93;1.77;;;19.60;99.90;;;19.75;63.99;100888.81;4850862;29;20498;-84
2023/09/13 14:36:05;;;;;;;3.47;1.60;;;19.50;99.90;;;19.73;65.09;100885.56;4829287;29;20819;-84
2023/09/13 14:38:32;;;;;;;3.72;1.60;;;19.50;99.90;;;19.60;64.63;100896.84;4834194;29;20128;-84
2023/09/13 14:40:59;;;;;;;4.47;1.70;;;19.40;99.90;;;19.58;65.27;100894.38;4826510;29;20126;-84
2023/09/13 14:43:28;;;;;;;4.07;1.60;;;19.40;99.90;;;19.58;65.74;100893.56;4833856;29;20037;-84
2023/09/13 14:45:55;;;;;;;6.68;1.60;;;19.40;99.90;;;19.63;64.35;100896.34;4818143;29;20058;-84
2023/09/13 14:48:22;;;;;;;4.75;1.55;;;19.40;99.90;;;19.63;63.55;100896.34;4823388;29;20043;-86
2023/09/13 14:50:49;;;;;;;5.00;1.73;;;19.40;99.90;;;19.55;63.44;100889.47;4825598;29;20047;-85
2023/09/13 14:53:17;;;;;;;3.10;1.65;;;19.30;99.90;;;19.44;63.58;100898.63;4833235;29;20054;-85
2023/09/13 14:55:45;;;;;;;6.55;2.03;;;19.20;99.90;;;19.49;64.88;100899.47;4833547;29;20077;-88
2023/09/13 14:58:12;;;;;;;6.85;1.80;;;19.20;99.90;;;19.54;65.45;100894.09;4826354;29;20399;-87
2023/09/13 15:00:42;;;;;;;4.63;1.90;;;19.30;99.90;;;19.56;64.23;100900.03;4825110;29;20077;-87
2023/09/13 15:03:09;;;;;;;5.18;2.13;;;19.30;99.90;;;19.61;64.74;100893.88;4830428;29;20056;-87
2023/09/13 15:05:36;;;;;;;8.32;2.00;;;19.30;99.90;;;19.63;64.67;100905.28;4830261;29;20074;-87
2023/09/13 15:08:05;;;;;;;4.63;2.00;;;19.30;99.90;;;19.64;65.35;100904.19;4826175;29;20742;-87
2023/09/13 15:10:32;;;;;;;5.78;2.15;;;19.30;99.90;;;19.65;65.52;100907.72;4834906;29;20082;-90
2023/09/13 15:13:01;;;;;;;4.68;2.22;;;19.30;99.90;;;19.68;66.05;100912.63;4819073;29;20050;-88
2023/09/13 15:15:35;;;;;;;9.80;2.60;;;19.40;99.90;;;19.66;64.45;100918.25;4846811;29;20141;-92
2023/09/13 15:18:04;;;;;;;5.43;1.95;;;19.40;99.90;;;19.68;64.27;100926.16;4825773;29;20050;-90
2023/09/13 15:20:33;;;;;;;8.75;2.03;;;19.40;99.90;;;19.68;64.83;100920.72;4842512;29;20567;-86
2023/09/13 15:23:00;;;;;;;8.60;2.33;;;19.40;99.90;;;19.66;64.22;100912.84;4826930;29;20058;-86
2023/09/13 15:25:27;;;;;;;6.05;2.20;;;19.40;99.90;;;19.59;62.87;100914.94;4826864;29;20125;-86
2023/09/13 15:27:54;;;;;;;5.97;2.20;;;19.30;99.90;;;19.55;63.20;100922.75;4832513;29;20099;-86
2023/09/13 15:30:22;;;;;;;6.80;2.15;;;19.20;99.90;;;19.52;62.58;100917.88;4836282;29;20046;-86
2023/09/13 15:32:49;;;;;;;5.53;2.00;;;19.20;99.90;;;19.54;63.30;100918.44;4830872;29;22303;-86
2023/09/13 15:35:18;;;;;;;5.15;2.20;;;19.20;99.90;;;19.55;63.27;100916.53;4826582;29;20677;-86
2023/09/13 15:37:45;;;;;;;5.80;1.95;;;19.20;99.90;;;19.56;63.36;100916.28;4848779;29;20444;-86
2023/09/13 15:40:13;;;;;;;6.05;2.20;;;19.30;99.90;;;19.55;62.35;100911.94;4827166;29;20129;-86
2023/09/13 15:42:40;;;;;;;4.78;2.13;;;19.30;99.90;;;19.53;62.58;100911.41;4846317;29;20107;-86
2023/09/13 15:45:09;;;;;;;7.10;2.17;;;19.30;99.90;;;19.54;63.22;100910.31;4846582;29;20050;-86
2023/09/13 15:47:37;;;;;;;7.93;1.98;;;19.30;99.90;;;19.61;63.69;100909.31;4820922;29;20076;-86
